Time;durP1;ratioP1;P1;durP2;ratioP2;P2;SDS_P1;SDS_P2;PMS_P1;PMS_P2;Temp;Humidity;BMP_temperature;BMP_pressure;BME280_temperature;BME280_humidity;BME280_pressure;Samples;Min_cycle;Max_cycle;Signal;HPM_P1;HPM_P2
2021/12/20 00:00:59;;;;;;;20.2;10.8;;;;;;;1.31;94.9707;95840.13;;;;
2021/12/20 00:02:03;;;;;;;20.2;10.8;;;;;;;1.31;94.9707;95840.13;;;;
2021/12/20 00:03:06;;;;;;;20.2;10.8;;;;;;;1.31;94.9707;95840.13;;;;
2021/12/20 00:04:07;;;;;;;20.2;10.8;;;;;;;1.31;94.9707;95840.13;;;;
2021/12/20 00:05:08;;;;;;;18.3;10.05;;;;;;;1.32;95.2041;95825.33;;;;
2021/12/20 00:06:09;;;;;;;18.3;10.05;;;;;;;1.32;95.2041;95825.33;;;;
2021/12/20 00:07:09;;;;;;;18.3;10.05;;;;;;;1.32;95.2041;95825.33;;;;
2021/12/20 00:08:10;;;;;;;18.3;10.05;;;;;;;1.32;95.2041;95825.33;;;;
2021/12/20 00:09:10;;;;;;;18.3;10.05;;;;;;;1.32;95.2041;95825.33;;;;
2021/12/20 00:10:11;;;;;;;18.3;10.05;;;;;;;1.32;95.2041;95825.33;;;;
2021/12/20 00:11:12;;;;;;;18.3;10.05;;;;;;;1.32;95.2041;95825.33;;;;
2021/12/20 00:12:12;;;;;;;18.3;10.05;;;;;;;1.32;95.2041;95825.33;;;;
2021/12/20 00:13:13;;;;;;;18.3;10.05;;;;;;;1.32;95.2041;95825.33;;;;
2021/12/20 00:14:13;;;;;;;18.3;10.05;;;;;;;1.32;95.2041;95825.33;;;;
2021/12/20 00:15:14;;;;;;;18.3;10.05;;;;;;;1.32;95.2041;95825.33;;;;
2021/12/20 00:16:15;;;;;;;22.4;11.2;;;;;;;1.31;95.31641;95813.44;;;;
2021/12/20 00:17:15;;;;;;;22.4;11.2;;;;;;;1.31;95.31641;95813.44;;;;
2021/12/20 00:18:16;;;;;;;22.4;11.2;;;;;;;1.31;95.31641;95813.44;;;;
2021/12/20 00:19:16;;;;;;;22.4;11.2;;;;;;;1.31;95.31641;95813.44;;;;
2021/12/20 00:20:17;;;;;;;22.4;11.2;;;;;;;1.31;95.31641;95813.44;;;;
2021/12/20 00:21:18;;;;;;;22.4;11.2;;;;;;;1.31;95.31641;95813.44;;;;
2021/12/20 00:22:19;;;;;;;22.4;11.2;;;;;;;1.31;95.31641;95813.44;;;;
2021/12/20 00:23:20;;;;;;;22.4;11.2;;;;;;;1.31;95.31641;95813.44;;;;
2021/12/20 00:24:21;;;;;;;22.4;11.2;;;;;;;1.31;95.31641;95813.44;;;;
2021/12/20 00:25:21;;;;;;;22.4;11.2;;;;;;;1.31;95.31641;95813.44;;;;
2021/12/20 00:26:22;;;;;;;23.65;11.2;;;;;;;1.3;95.67871;95811.78;;;;
2021/12/20 00:27:22;;;;;;;23.65;11.2;;;;;;;1.3;95.67871;95811.78;;;;
2021/12/20 00:28:23;;;;;;;23.65;11.2;;;;;;;1.3;95.67871;95811.78;;;;
2021/12/20 00:29:23;;;;;;;23.65;11.2;;;;;;;1.3;95.67871;95811.78;;;;
2021/12/20 00:30:24;;;;;;;23.65;11.2;;;;;;;1.3;95.67871;95811.78;;;;
2021/12/20 00:31:25;;;;;;;23.65;11.2;;;;;;;1.3;95.67871;95811.78;;;;
2021/12/20 00:32:25;;;;;;;23.65;11.2;;;;;;;1.3;95.67871;95811.78;;;;
2021/12/20 00:33:33;;;;;;;23.65;11.2;;;;;;;1.3;95.67871;95811.78;;;;
2021/12/20 00:34:36;;;;;;;23.65;11.2;;;;;;;1.3;95.67871;95811.78;;;;
2021/12/20 00:35:37;;;;;;;23.65;11.2;;;;;;;1.3;95.67871;95811.78;;;;
2021/12/20 00:36:38;;;;;;;23.65;11.2;;;;;;;1.3;95.67871;95811.78;;;;
2021/12/20 00:42:48;;;;;;;21.55;10.85;;;;;;;1.37;95.96191;95808.89;;;;
2021/12/20 00:43:51;;;;;;;21.55;10.85;;;;;;;1.37;95.96191;95808.89;;;;
2021/12/20 00:44:51;;;;;;;21.55;10.85;;;;;;;1.37;95.96191;95808.89;;;;
2021/12/20 00:45:51;;;;;;;21.55;10.85;;;;;;;1.37;95.96191;95808.89;;;;
2021/12/20 00:46:52;;;;;;;21.55;10.85;;;;;;;1.37;95.96191;95808.89;;;;
2021/12/20 00:47:53;;;;;;;21.55;10.85;;;;;;;1.37;95.96191;95808.89;;;;
2021/12/20 00:48:53;;;;;;;21.2;10.75;;;;;;;1.43;96.05957;95806.38;;;;
2021/12/20 00:49:55;;;;;;;21.2;10.75;;;;;;;1.43;96.05957;95806.38;;;;
2021/12/20 00:50:55;;;;;;;21.2;10.75;;;;;;;1.43;96.05957;95806.38;;;;
2021/12/20 00:51:56;;;;;;;21.2;10.75;;;;;;;1.43;96.05957;95806.38;;;;
2021/12/20 00:52:56;;;;;;;21.2;10.75;;;;;;;1.43;96.05957;95806.38;;;;
2021/12/20 00:53:57;;;;;;;21.2;10.75;;;;;;;1.43;96.05957;95806.38;;;;
2021/12/20 00:54:58;;;;;;;21.2;10.75;;;;;;;1.43;96.05957;95806.38;;;;
2021/12/20 00:55:59;;;;;;;21.2;10.75;;;;;;;1.43;96.05957;95806.38;;;;
2021/12/20 00:56:59;;;;;;;21.2;10.75;;;;;;;1.43;96.05957;95806.38;;;;
2021/12/20 00:58:00;;;;;;;21.2;10.75;;;;;;;1.43;96.05957;95806.38;;;;
2021/12/20 00:59:01;;;;;;;21.2;10.75;;;;;;;1.43;96.05957;95806.38;;;;
2021/12/20 01:00:01;;;;;;;23.5;11.3;;;;;;;1.48;96.14551;95802.72;;;;
2021/12/20 01:01:05;;;;;;;23.5;11.3;;;;;;;1.48;96.14551;95802.72;;;;
2021/12/20 01:02:05;;;;;;;23.5;11.3;;;;;;;1.48;96.14551;95802.72;;;;
2021/12/20 01:03:06;;;;;;;23.5;11.3;;;;;;;1.48;96.14551;95802.72;;;;
2021/12/20 01:04:08;;;;;;;23.5;11.3;;;;;;;1.48;96.14551;95802.72;;;;
2021/12/20 01:05:09;;;;;;;23.5;11.3;;;;;;;1.48;96.14551;95802.72;;;;
2021/12/20 01:06:11;;;;;;;23.5;11.3;;;;;;;1.48;96.14551;95802.72;;;;
2021/12/20 01:07:11;;;;;;;23.5;11.3;;;;;;;1.48;96.14551;95802.72;;;;
2021/12/20 01:08:12;;;;;;;23.5;11.3;;;;;;;1.48;96.14551;95802.72;;;;
2021/12/20 01:09:13;;;;;;;23.5;11.3;;;;;;;1.48;96.14551;95802.72;;;;
2021/12/20 01:10:13;;;;;;;23.05;10.85;;;;;;;1.53;96.25098;95799.47;;;;
2021/12/20 01:11:20;;;;;;;23.05;10.85;;;;;;;1.53;96.25098;95799.47;;;;
2021/12/20 01:12:22;;;;;;;23.05;10.85;;;;;;;1.53;96.25098;95799.47;;;;
2021/12/20 01:13:25;;;;;;;23.05;10.85;;;;;;;1.53;96.25098;95799.47;;;;
2021/12/20 01:14:28;;;;;;;23.05;10.85;;;;;;;1.53;96.25098;95799.47;;;;
2021/12/20 01:15:31;;;;;;;23.05;10.85;;;;;;;1.53;96.25098;95799.47;;;;
2021/12/20 01:16:34;;;;;;;23.05;10.85;;;;;;;1.53;96.25098;95799.47;;;;
2021/12/20 01:17:35;;;;;;;23.05;10.85;;;;;;;1.53;96.25098;95799.47;;;;
2021/12/20 01:18:35;;;;;;;23.05;10.85;;;;;;;1.53;96.25098;95799.47;;;;
2021/12/20 01:19:36;;;;;;;23.05;10.85;;;;;;;1.53;96.25098;95799.47;;;;
2021/12/20 01:20:41;;;;;;;23.05;10.85;;;;;;;1.53;96.25098;95799.47;;;;
2021/12/20 01:21:42;;;;;;;21;10.4;;;;;;;1.56;96.30762;95791.66;;;;
2021/12/20 01:22:43;;;;;;;21;10.4;;;;;;;1.56;96.30762;95791.66;;;;
2021/12/20 01:23:45;;;;;;;21;10.4;;;;;;;1.56;96.30762;95791.66;;;;
2021/12/20 01:24:46;;;;;;;21;10.4;;;;;;;1.56;96.30762;95791.66;;;;
2021/12/20 01:25:47;;;;;;;21;10.4;;;;;;;1.56;96.30762;95791.66;;;;
2021/12/20 01:26:47;;;;;;;21;10.4;;;;;;;1.56;96.30762;95791.66;;;;
2021/12/20 01:27:48;;;;;;;21;10.4;;;;;;;1.56;96.30762;95791.66;;;;
2021/12/20 01:28:50;;;;;;;21;10.4;;;;;;;1.56;96.30762;95791.66;;;;
2021/12/20 01:29:51;;;;;;;21;10.4;;;;;;;1.56;96.30762;95791.66;;;;
2021/12/20 01:30:51;;;;;;;21;10.4;;;;;;;1.56;96.30762;95791.66;;;;
2021/12/20 01:31:52;;;;;;;21;10.4;;;;;;;1.56;96.30762;95791.66;;;;
2021/12/20 01:32:52;;;;;;;21.2;10.3;;;;;;;1.48;96.40527;95800.05;;;;
2021/12/20 01:33:53;;;;;;;21.2;10.3;;;;;;;1.48;96.40527;95800.05;;;;
2021/12/20 01:34:54;;;;;;;21.2;10.3;;;;;;;1.48;96.40527;95800.05;;;;
2021/12/20 01:35:56;;;;;;;21.2;10.3;;;;;;;1.48;96.40527;95800.05;;;;
2021/12/20 01:36:57;;;;;;;21.2;10.3;;;;;;;1.48;96.40527;95800.05;;;;
2021/12/20 01:37:57;;;;;;;21.2;10.3;;;;;;;1.48;96.40527;95800.05;;;;
2021/12/20 01:38:58;;;;;;;21.2;10.3;;;;;;;1.48;96.40527;95800.05;;;;
2021/12/20 01:39:59;;;;;;;21.2;10.3;;;;;;;1.48;96.40527;95800.05;;;;
2021/12/20 01:41:00;;;;;;;21.2;10.3;;;;;;;1.48;96.40527;95800.05;;;;
2021/12/20 01:42:03;;;;;;;21.2;10.3;;;;;;;1.48;96.40527;95800.05;;;;
2021/12/20 01:43:05;;;;;;;21.2;10.3;;;;;;;1.48;96.40527;95800.05;;;;
2021/12/20 01:44:06;;;;;;;21.55;10.6;;;;;;;1.43;96.80859;95806.87;;;;
2021/12/20 01:45:08;;;;;;;21.55;10.6;;;;;;;1.43;96.80859;95806.87;;;;
2021/12/20 01:46:13;;;;;;;21.55;10.6;;;;;;;1.43;96.80859;95806.87;;;;
2021/12/20 01:47:14;;;;;;;21.55;10.6;;;;;;;1.43;96.80859;95806.87;;;;
2021/12/20 01:48:17;;;;;;;21.55;10.6;;;;;;;1.43;96.80859;95806.87;;;;
2021/12/20 01:49:18;;;;;;;21.55;10.6;;;;;;;1.43;96.80859;95806.87;;;;
2021/12/20 01:50:24;;;;;;;21.55;10.6;;;;;;;1.43;96.80859;95806.87;;;;
2021/12/20 01:51:44;;;;;;;21.55;10.6;;;;;;;1.43;96.80859;95806.87;;;;
2021/12/20 01:52:46;;;;;;;21.55;10.6;;;;;;;1.43;96.80859;95806.87;;;;
2021/12/20 01:53:47;;;;;;;21.55;10.6;;;;;;;1.43;96.80859;95806.87;;;;
2021/12/20 01:54:47;;;;;;;22.3;10.4;;;;;;;1.43;97.15234;95799.73;;;;
2021/12/20 01:55:48;;;;;;;22.3;10.4;;;;;;;1.43;97.15234;95799.73;;;;
2021/12/20 01:56:51;;;;;;;22.3;10.4;;;;;;;1.43;97.15234;95799.73;;;;
2021/12/20 01:57:52;;;;;;;22.3;10.4;;;;;;;1.43;97.15234;95799.73;;;;
2021/12/20 01:58:52;;;;;;;22.3;10.4;;;;;;;1.43;97.15234;95799.73;;;;
2021/12/20 02:00:00;;;;;;;22.3;10.4;;;;;;;1.43;97.15234;95799.73;;;;
2021/12/20 02:01:02;;;;;;;22.3;10.4;;;;;;;1.43;97.15234;95799.73;;;;
2021/12/20 02:02:05;;;;;;;22.3;10.4;;;;;;;1.43;97.15234;95799.73;;;;
2021/12/20 02:03:08;;;;;;;22.3;10.4;;;;;;;1.43;97.15234;95799.73;;;;
2021/12/20 02:04:09;;;;;;;22.3;10.4;;;;;;;1.43;97.15234;95799.73;;;;
2021/12/20 02:05:17;;;;;;;20.95;11.35;;;;;;;1.43;97.29785;95789.58;;;;
2021/12/20 02:06:25;;;;;;;20.95;11.35;;;;;;;1.43;97.29785;95789.58;;;;
2021/12/20 02:07:37;;;;;;;20.95;11.35;;;;;;;1.43;97.29785;95789.58;;;;
2021/12/20 02:08:37;;;;;;;20.95;11.35;;;;;;;1.43;97.29785;95789.58;;;;
2021/12/20 02:09:38;;;;;;;20.95;11.35;;;;;;;1.43;97.29785;95789.58;;;;
2021/12/20 02:10:38;;;;;;;20.95;11.35;;;;;;;1.43;97.29785;95789.58;;;;
2021/12/20 02:11:39;;;;;;;20.95;11.35;;;;;;;1.43;97.29785;95789.58;;;;
2021/12/20 02:12:43;;;;;;;20.95;11.35;;;;;;;1.43;97.29785;95789.58;;;;
2021/12/20 02:13:44;;;;;;;20.95;11.35;;;;;;;1.43;97.29785;95789.58;;;;
2021/12/20 02:14:45;;;;;;;20.95;11.35;;;;;;;1.43;97.29785;95789.58;;;;
2021/12/20 02:15:45;;;;;;;20.95;11.35;;;;;;;1.43;97.29785;95789.58;;;;
2021/12/20 02:16:46;;;;;;;20.2;10.25;;;;;;;1.42;97.53516;95784.36;;;;
2021/12/20 02:17:47;;;;;;;20.2;10.25;;;;;;;1.42;97.53516;95784.36;;;;
2021/12/20 02:18:48;;;;;;;20.2;10.25;;;;;;;1.42;97.53516;95784.36;;;;
2021/12/20 02:19:49;;;;;;;20.2;10.25;;;;;;;1.42;97.53516;95784.36;;;;
2021/12/20 02:20:50;;;;;;;20.2;10.25;;;;;;;1.42;97.53516;95784.36;;;;
2021/12/20 02:21:51;;;;;;;20.2;10.25;;;;;;;1.42;97.53516;95784.36;;;;
2021/12/20 02:22:51;;;;;;;20.2;10.25;;;;;;;1.42;97.53516;95784.36;;;;
2021/12/20 02:23:54;;;;;;;20.2;10.25;;;;;;;1.42;97.53516;95784.36;;;;
2021/12/20 02:24:55;;;;;;;20.2;10.25;;;;;;;1.42;97.53516;95784.36;;;;
2021/12/20 02:25:55;;;;;;;20.2;10.25;;;;;;;1.42;97.53516;95784.36;;;;
2021/12/20 02:26:56;;;;;;;20.2;10.25;;;;;;;1.42;97.53516;95784.36;;;;
2021/12/20 02:27:57;;;;;;;19.75;9.75;;;;;;;1.41;97.69922;95788;;;;
2021/12/20 02:29:04;;;;;;;19.75;9.75;;;;;;;1.41;97.69922;95788;;;;
2021/12/20 02:30:12;;;;;;;19.75;9.75;;;;;;;1.41;97.69922;95788;;;;
2021/12/20 02:36:59;;;;;;;19.75;9.75;;;;;;;1.41;97.69922;95788;;;;
2021/12/20 02:38:00;;;;;;;19.75;9.75;;;;;;;1.41;97.69922;95788;;;;
2021/12/20 02:39:00;;;;;;;23.15;10.15;;;;;;;1.49;97.91602;95775.12;;;;
2021/12/20 02:40:01;;;;;;;23.15;10.15;;;;;;;1.49;97.91602;95775.12;;;;
2021/12/20 02:41:05;;;;;;;23.15;10.15;;;;;;;1.49;97.91602;95775.12;;;;
2021/12/20 02:42:13;;;;;;;23.15;10.15;;;;;;;1.49;97.91602;95775.12;;;;
2021/12/20 02:43:18;;;;;;;23.15;10.15;;;;;;;1.49;97.91602;95775.12;;;;
2021/12/20 02:44:20;;;;;;;23.15;10.15;;;;;;;1.49;97.91602;95775.12;;;;
2021/12/20 02:45:22;;;;;;;23.15;10.15;;;;;;;1.49;97.91602;95775.12;;;;
2021/12/20 02:46:33;;;;;;;23.15;10.15;;;;;;;1.49;97.91602;95775.12;;;;
2021/12/20 02:47:35;;;;;;;23.15;10.15;;;;;;;1.49;97.91602;95775.12;;;;
2021/12/20 02:48:37;;;;;;;23.15;10.15;;;;;;;1.49;97.91602;95775.12;;;;
2021/12/20 02:49:38;;;;;;;22.45;10.15;;;;;;;1.55;97.82715;95782.84;;;;
2021/12/20 02:50:38;;;;;;;22.45;10.15;;;;;;;1.55;97.82715;95782.84;;;;
2021/12/20 02:51:39;;;;;;;22.45;10.15;;;;;;;1.55;97.82715;95782.84;;;;
2021/12/20 02:52:40;;;;;;;22.45;10.15;;;;;;;1.55;97.82715;95782.84;;;;
2021/12/20 02:53:41;;;;;;;22.45;10.15;;;;;;;1.55;97.82715;95782.84;;;;
2021/12/20 02:54:42;;;;;;;22.45;10.15;;;;;;;1.55;97.82715;95782.84;;;;
2021/12/20 02:55:42;;;;;;;22.45;10.15;;;;;;;1.55;97.82715;95782.84;;;;
2021/12/20 02:56:43;;;;;;;22.45;10.15;;;;;;;1.55;97.82715;95782.84;;;;
2021/12/20 02:57:43;;;;;;;22.45;10.15;;;;;;;1.55;97.82715;95782.84;;;;
2021/12/20 02:58:45;;;;;;;22.45;10.15;;;;;;;1.55;97.82715;95782.84;;;;
2021/12/20 02:59:46;;;;;;;22.45;10.15;;;;;;;1.55;97.82715;95782.84;;;;
2021/12/20 03:00:46;;;;;;;18.25;9.400001;;;;;;;1.57;97.77734;95758.72;;;;
2021/12/20 03:01:47;;;;;;;18.25;9.400001;;;;;;;1.57;97.77734;95758.72;;;;
2021/12/20 03:02:51;;;;;;;18.25;9.400001;;;;;;;1.57;97.77734;95758.72;;;;
2021/12/20 03:03:51;;;;;;;18.25;9.400001;;;;;;;1.57;97.77734;95758.72;;;;
2021/12/20 03:04:55;;;;;;;18.25;9.400001;;;;;;;1.57;97.77734;95758.72;;;;
2021/12/20 03:05:55;;;;;;;18.25;9.400001;;;;;;;1.57;97.77734;95758.72;;;;
2021/12/20 03:06:56;;;;;;;18.25;9.400001;;;;;;;1.57;97.77734;95758.72;;;;
2021/12/20 03:08:00;;;;;;;18.25;9.400001;;;;;;;1.57;97.77734;95758.72;;;;
2021/12/20 03:09:01;;;;;;;18.25;9.400001;;;;;;;1.57;97.77734;95758.72;;;;
2021/12/20 03:10:03;;;;;;;18.25;9.400001;;;;;;;1.57;97.77734;95758.72;;;;
2021/12/20 03:11:05;;;;;;;20.6;9.799999;;;;;;;1.55;97.79395;95761.63;;;;
2021/12/20 03:12:06;;;;;;;20.6;9.799999;;;;;;;1.55;97.79395;95761.63;;;;
2021/12/20 03:13:10;;;;;;;20.6;9.799999;;;;;;;1.55;97.79395;95761.63;;;;
2021/12/20 03:14:15;;;;;;;20.6;9.799999;;;;;;;1.55;97.79395;95761.63;;;;
2021/12/20 03:15:20;;;;;;;20.6;9.799999;;;;;;;1.55;97.79395;95761.63;;;;
2021/12/20 03:16:21;;;;;;;20.6;9.799999;;;;;;;1.55;97.79395;95761.63;;;;
2021/12/20 03:17:21;;;;;;;20.6;9.799999;;;;;;;1.55;97.79395;95761.63;;;;
2021/12/20 03:18:22;;;;;;;20.6;9.799999;;;;;;;1.55;97.79395;95761.63;;;;
2021/12/20 03:19:22;;;;;;;20.6;9.799999;;;;;;;1.55;97.79395;95761.63;;;;
2021/12/20 03:20:23;;;;;;;20.6;9.799999;;;;;;;1.55;97.79395;95761.63;;;;
2021/12/20 03:21:24;;;;;;;20.6;9.799999;;;;;;;1.55;97.79395;95761.63;;;;
2021/12/20 03:22:24;;;;;;;19.5;10.15;;;;;;;1.51;97.86816;95770.43;;;;
2021/12/20 03:23:25;;;;;;;19.5;10.15;;;;;;;1.51;97.86816;95770.43;;;;
2021/12/20 03:24:26;;;;;;;19.5;10.15;;;;;;;1.51;97.86816;95770.43;;;;
2021/12/20 03:25:27;;;;;;;19.5;10.15;;;;;;;1.51;97.86816;95770.43;;;;
2021/12/20 03:26:27;;;;;;;19.5;10.15;;;;;;;1.51;97.86816;95770.43;;;;
2021/12/20 03:27:28;;;;;;;19.5;10.15;;;;;;;1.51;97.86816;95770.43;;;;
2021/12/20 03:28:28;;;;;;;19.5;10.15;;;;;;;1.51;97.86816;95770.43;;;;
2021/12/20 03:29:29;;;;;;;19.5;10.15;;;;;;;1.51;97.86816;95770.43;;;;
2021/12/20 03:30:30;;;;;;;19.5;10.15;;;;;;;1.51;97.86816;95770.43;;;;
2021/12/20 03:31:30;;;;;;;19.5;10.15;;;;;;;1.51;97.86816;95770.43;;;;
2021/12/20 03:32:31;;;;;;;19.5;10.15;;;;;;;1.51;97.86816;95770.43;;;;
2021/12/20 03:33:32;;;;;;;19.95;10.15;;;;;;;1.52;98.30762;95777.94;;;;
2021/12/20 03:34:32;;;;;;;19.95;10.15;;;;;;;1.52;98.30762;95777.94;;;;
2021/12/20 03:35:33;;;;;;;19.95;10.15;;;;;;;1.52;98.30762;95777.94;;;;
2021/12/20 03:36:33;;;;;;;19.95;10.15;;;;;;;1.52;98.30762;95777.94;;;;
2021/12/20 03:37:34;;;;;;;19.95;10.15;;;;;;;1.52;98.30762;95777.94;;;;
2021/12/20 03:38:35;;;;;;;19.95;10.15;;;;;;;1.52;98.30762;95777.94;;;;
2021/12/20 03:39:36;;;;;;;19.95;10.15;;;;;;;1.52;98.30762;95777.94;;;;
2021/12/20 03:40:37;;;;;;;19.95;10.15;;;;;;;1.52;98.30762;95777.94;;;;
2021/12/20 03:41:38;;;;;;;19.95;10.15;;;;;;;1.52;98.30762;95777.94;;;;
2021/12/20 03:42:42;;;;;;;19.95;10.15;;;;;;;1.52;98.30762;95777.94;;;;
2021/12/20 03:43:42;;;;;;;19.95;10.15;;;;;;;1.52;98.30762;95777.94;;;;
2021/12/20 03:44:44;;;;;;;21.35;10.4;;;;;;;1.53;98.51758;95779.1;;;;
2021/12/20 03:45:49;;;;;;;21.35;10.4;;;;;;;1.53;98.51758;95779.1;;;;
2021/12/20 03:46:50;;;;;;;21.35;10.4;;;;;;;1.53;98.51758;95779.1;;;;
2021/12/20 03:47:51;;;;;;;21.35;10.4;;;;;;;1.53;98.51758;95779.1;;;;
2021/12/20 03:48:51;;;;;;;21.35;10.4;;;;;;;1.53;98.51758;95779.1;;;;
2021/12/20 03:49:52;;;;;;;21.35;10.4;;;;;;;1.53;98.51758;95779.1;;;;
2021/12/20 03:50:53;;;;;;;21.35;10.4;;;;;;;1.53;98.51758;95779.1;;;;
2021/12/20 03:51:54;;;;;;;21.35;10.4;;;;;;;1.53;98.51758;95779.1;;;;
2021/12/20 03:52:54;;;;;;;21.35;10.4;;;;;;;1.53;98.51758;95779.1;;;;
2021/12/20 03:53:55;;;;;;;21.35;10.4;;;;;;;1.53;98.51758;95779.1;;;;
2021/12/20 03:54:56;;;;;;;19.9;10.2;;;;;;;1.54;98.61523;95775.87;;;;
2021/12/20 03:55:56;;;;;;;19.9;10.2;;;;;;;1.54;98.61523;95775.87;;;;
2021/12/20 03:56:57;;;;;;;19.9;10.2;;;;;;;1.54;98.61523;95775.87;;;;
2021/12/20 03:57:58;;;;;;;19.9;10.2;;;;;;;1.54;98.61523;95775.87;;;;
2021/12/20 03:58:58;;;;;;;19.9;10.2;;;;;;;1.54;98.61523;95775.87;;;;
2021/12/20 03:59:59;;;;;;;19.9;10.2;;;;;;;1.54;98.61523;95775.87;;;;
2021/12/20 04:01:00;;;;;;;19.9;10.2;;;;;;;1.54;98.61523;95775.87;;;;
2021/12/20 04:02:06;;;;;;;19.9;10.2;;;;;;;1.54;98.61523;95775.87;;;;
2021/12/20 04:03:11;;;;;;;19.9;10.2;;;;;;;1.54;98.61523;95775.87;;;;
2021/12/20 04:04:11;;;;;;;19.9;10.2;;;;;;;1.54;98.61523;95775.87;;;;
2021/12/20 04:05:12;;;;;;;19.9;10.2;;;;;;;1.54;98.61523;95775.87;;;;
2021/12/20 04:06:14;;;;;;;18.9;9.95;;;;;;;1.52;98.7334;95773.86;;;;
2021/12/20 04:07:14;;;;;;;18.9;9.95;;;;;;;1.52;98.7334;95773.86;;;;
2021/12/20 04:08:15;;;;;;;18.9;9.95;;;;;;;1.52;98.7334;95773.86;;;;
2021/12/20 04:09:15;;;;;;;18.9;9.95;;;;;;;1.52;98.7334;95773.86;;;;
2021/12/20 04:10:17;;;;;;;18.9;9.95;;;;;;;1.52;98.7334;95773.86;;;;
2021/12/20 04:11:17;;;;;;;18.9;9.95;;;;;;;1.52;98.7334;95773.86;;;;
2021/12/20 04:12:18;;;;;;;18.9;9.95;;;;;;;1.52;98.7334;95773.86;;;;
2021/12/20 04:13:18;;;;;;;18.9;9.95;;;;;;;1.52;98.7334;95773.86;;;;
2021/12/20 04:14:19;;;;;;;18.9;9.95;;;;;;;1.52;98.7334;95773.86;;;;
2021/12/20 04:15:19;;;;;;;18.9;9.95;;;;;;;1.52;98.7334;95773.86;;;;
2021/12/20 04:16:20;;;;;;;18.9;9.95;;;;;;;1.52;98.7334;95773.86;;;;
2021/12/20 04:17:20;;;;;;;20.15;9.699999;;;;;;;1.6;99.00098;95781.92;;;;
2021/12/20 04:18:21;;;;;;;20.15;9.699999;;;;;;;1.6;99.00098;95781.92;;;;
2021/12/20 04:19:22;;;;;;;20.15;9.699999;;;;;;;1.6;99.00098;95781.92;;;;
2021/12/20 04:20:23;;;;;;;20.15;9.699999;;;;;;;1.6;99.00098;95781.92;;;;
2021/12/20 04:21:24;;;;;;;20.15;9.699999;;;;;;;1.6;99.00098;95781.92;;;;
2021/12/20 04:22:24;;;;;;;20.15;9.699999;;;;;;;1.6;99.00098;95781.92;;;;
2021/12/20 04:23:24;;;;;;;20.15;9.699999;;;;;;;1.6;99.00098;95781.92;;;;
2021/12/20 04:24:25;;;;;;;20.15;9.699999;;;;;;;1.6;99.00098;95781.92;;;;
2021/12/20 04:25:26;;;;;;;20.15;9.699999;;;;;;;1.6;99.00098;95781.92;;;;
2021/12/20 04:26:26;;;;;;;20.15;9.699999;;;;;;;1.6;99.00098;95781.92;;;;
2021/12/20 04:27:27;;;;;;;20.15;9.699999;;;;;;;1.6;99.00098;95781.92;;;;
2021/12/20 04:28:27;;;;;;;21.1;10.4;;;;;;;1.64;98.85547;95775.66;;;;
2021/12/20 04:29:29;;;;;;;21.1;10.4;;;;;;;1.64;98.85547;95775.66;;;;
2021/12/20 04:30:31;;;;;;;21.1;10.4;;;;;;;1.64;98.85547;95775.66;;;;
2021/12/20 04:31:35;;;;;;;21.1;10.4;;;;;;;1.64;98.85547;95775.66;;;;
2021/12/20 04:32:35;;;;;;;21.1;10.4;;;;;;;1.64;98.85547;95775.66;;;;
2021/12/20 04:33:37;;;;;;;21.1;10.4;;;;;;;1.64;98.85547;95775.66;;;;
2021/12/20 04:34:37;;;;;;;21.1;10.4;;;;;;;1.64;98.85547;95775.66;;;;
2021/12/20 04:35:38;;;;;;;21.1;10.4;;;;;;;1.64;98.85547;95775.66;;;;
2021/12/20 04:36:38;;;;;;;21.1;10.4;;;;;;;1.64;98.85547;95775.66;;;;
2021/12/20 04:37:40;;;;;;;21.1;10.4;;;;;;;1.64;98.85547;95775.66;;;;
2021/12/20 04:38:43;;;;;;;21.1;10.4;;;;;;;1.64;98.85547;95775.66;;;;
2021/12/20 04:39:44;;;;;;;22.45;10.15;;;;;;;1.6;98.81543;95781.83;;;;
2021/12/20 04:40:44;;;;;;;22.45;10.15;;;;;;;1.6;98.81543;95781.83;;;;
2021/12/20 04:41:45;;;;;;;22.45;10.15;;;;;;;1.6;98.81543;95781.83;;;;
2021/12/20 04:42:46;;;;;;;22.45;10.15;;;;;;;1.6;98.81543;95781.83;;;;
2021/12/20 04:43:48;;;;;;;22.45;10.15;;;;;;;1.6;98.81543;95781.83;;;;
2021/12/20 04:44:49;;;;;;;22.45;10.15;;;;;;;1.6;98.81543;95781.83;;;;
2021/12/20 04:45:49;;;;;;;22.45;10.15;;;;;;;1.6;98.81543;95781.83;;;;
2021/12/20 04:46:50;;;;;;;22.45;10.15;;;;;;;1.6;98.81543;95781.83;;;;
2021/12/20 04:47:51;;;;;;;22.45;10.15;;;;;;;1.6;98.81543;95781.83;;;;
2021/12/20 04:48:52;;;;;;;22.45;10.15;;;;;;;1.6;98.81543;95781.83;;;;
2021/12/20 04:49:52;;;;;;;22;10.15;;;;;;;1.54;99.0625;95790.5;;;;
2021/12/20 04:50:53;;;;;;;22;10.15;;;;;;;1.54;99.0625;95790.5;;;;
2021/12/20 04:51:53;;;;;;;22;10.15;;;;;;;1.54;99.0625;95790.5;;;;
2021/12/20 04:52:55;;;;;;;22;10.15;;;;;;;1.54;99.0625;95790.5;;;;
2021/12/20 04:53:56;;;;;;;22;10.15;;;;;;;1.54;99.0625;95790.5;;;;
2021/12/20 04:54:57;;;;;;;22;10.15;;;;;;;1.54;99.0625;95790.5;;;;
2021/12/20 04:55:57;;;;;;;22;10.15;;;;;;;1.54;99.0625;95790.5;;;;
2021/12/20 04:56:58;;;;;;;22;10.15;;;;;;;1.54;99.0625;95790.5;;;;
2021/12/20 04:57:58;;;;;;;22;10.15;;;;;;;1.54;99.0625;95790.5;;;;
2021/12/20 04:59:02;;;;;;;22;10.15;;;;;;;1.54;99.0625;95790.5;;;;
2021/12/20 05:00:02;;;;;;;22;10.15;;;;;;;1.54;99.0625;95790.5;;;;
2021/12/20 05:01:06;;;;;;;20.6;10.2;;;;;;;1.48;99.29688;95789.83;;;;
2021/12/20 05:02:07;;;;;;;20.6;10.2;;;;;;;1.48;99.29688;95789.83;;;;
2021/12/20 05:03:07;;;;;;;20.6;10.2;;;;;;;1.48;99.29688;95789.83;;;;
2021/12/20 05:04:08;;;;;;;20.6;10.2;;;;;;;1.48;99.29688;95789.83;;;;
2021/12/20 05:05:09;;;;;;;20.6;10.2;;;;;;;1.48;99.29688;95789.83;;;;
2021/12/20 05:06:10;;;;;;;20.6;10.2;;;;;;;1.48;99.29688;95789.83;;;;
2021/12/20 05:07:11;;;;;;;20.6;10.2;;;;;;;1.48;99.29688;95789.83;;;;
2021/12/20 05:08:12;;;;;;;20.6;10.2;;;;;;;1.48;99.29688;95789.83;;;;
2021/12/20 05:09:13;;;;;;;20.6;10.2;;;;;;;1.48;99.29688;95789.83;;;;
2021/12/20 05:10:24;;;;;;;20.6;10.2;;;;;;;1.48;99.29688;95789.83;;;;
2021/12/20 05:11:28;;;;;;;20.6;10.2;;;;;;;1.48;99.29688;95789.83;;;;
2021/12/20 05:12:29;;;;;;;23.85;11;;;;;;;1.52;99.60742;95801.39;;;;
2021/12/20 05:13:29;;;;;;;23.85;11;;;;;;;1.52;99.60742;95801.39;;;;
2021/12/20 05:14:30;;;;;;;23.85;11;;;;;;;1.52;99.60742;95801.39;;;;
2021/12/20 05:15:30;;;;;;;23.85;11;;;;;;;1.52;99.60742;95801.39;;;;
2021/12/20 05:16:32;;;;;;;23.85;11;;;;;;;1.52;99.60742;95801.39;;;;
2021/12/20 05:17:32;;;;;;;23.85;11;;;;;;;1.52;99.60742;95801.39;;;;
2021/12/20 05:18:33;;;;;;;23.85;11;;;;;;;1.52;99.60742;95801.39;;;;
2021/12/20 05:19:34;;;;;;;23.85;11;;;;;;;1.52;99.60742;95801.39;;;;
2021/12/20 05:20:34;;;;;;;23.85;11;;;;;;;1.52;99.60742;95801.39;;;;
2021/12/20 05:21:35;;;;;;;23.85;11;;;;;;;1.52;99.60742;95801.39;;;;
2021/12/20 05:22:36;;;;;;;23.85;11;;;;;;;1.52;99.60742;95801.39;;;;
2021/12/20 05:23:36;;;;;;;21.05;10.05;;;;;;;1.57;99.56641;95806.61;;;;
2021/12/20 05:24:37;;;;;;;21.05;10.05;;;;;;;1.57;99.56641;95806.61;;;;
2021/12/20 05:25:39;;;;;;;21.05;10.05;;;;;;;1.57;99.56641;95806.61;;;;
2021/12/20 05:26:39;;;;;;;21.05;10.05;;;;;;;1.57;99.56641;95806.61;;;;
2021/12/20 05:27:40;;;;;;;21.05;10.05;;;;;;;1.57;99.56641;95806.61;;;;
2021/12/20 05:28:40;;;;;;;21.05;10.05;;;;;;;1.57;99.56641;95806.61;;;;
2021/12/20 05:29:41;;;;;;;21.05;10.05;;;;;;;1.57;99.56641;95806.61;;;;
2021/12/20 05:30:41;;;;;;;21.05;10.05;;;;;;;1.57;99.56641;95806.61;;;;
2021/12/20 05:31:42;;;;;;;21.05;10.05;;;;;;;1.57;99.56641;95806.61;;;;
2021/12/20 05:32:43;;;;;;;21.05;10.05;;;;;;;1.57;99.56641;95806.61;;;;
2021/12/20 05:33:44;;;;;;;19.7;10.2;;;;;;;1.53;99.49512;95827.5;;;;
2021/12/20 05:34:45;;;;;;;19.7;10.2;;;;;;;1.53;99.49512;95827.5;;;;
2021/12/20 05:35:45;;;;;;;19.7;10.2;;;;;;;1.53;99.49512;95827.5;;;;
2021/12/20 05:36:46;;;;;;;19.7;10.2;;;;;;;1.53;99.49512;95827.5;;;;
2021/12/20 05:37:47;;;;;;;19.7;10.2;;;;;;;1.53;99.49512;95827.5;;;;
2021/12/20 05:38:49;;;;;;;19.7;10.2;;;;;;;1.53;99.49512;95827.5;;;;
2021/12/20 05:39:49;;;;;;;19.7;10.2;;;;;;;1.53;99.49512;95827.5;;;;
2021/12/20 05:40:50;;;;;;;19.7;10.2;;;;;;;1.53;99.49512;95827.5;;;;
2021/12/20 05:41:50;;;;;;;19.7;10.2;;;;;;;1.53;99.49512;95827.5;;;;
2021/12/20 05:42:51;;;;;;;19.7;10.2;;;;;;;1.53;99.49512;95827.5;;;;
2021/12/20 05:43:51;;;;;;;19.7;10.2;;;;;;;1.53;99.49512;95827.5;;;;
2021/12/20 05:44:52;;;;;;;19.25;9.900002;;;;;;;1.47;99.75195;95822.85;;;;
2021/12/20 05:45:52;;;;;;;19.25;9.900002;;;;;;;1.47;99.75195;95822.85;;;;
2021/12/20 05:46:53;;;;;;;19.25;9.900002;;;;;;;1.47;99.75195;95822.85;;;;
2021/12/20 05:47:53;;;;;;;19.25;9.900002;;;;;;;1.47;99.75195;95822.85;;;;
2021/12/20 05:48:54;;;;;;;19.25;9.900002;;;;;;;1.47;99.75195;95822.85;;;;
2021/12/20 05:49:54;;;;;;;19.25;9.900002;;;;;;;1.47;99.75195;95822.85;;;;
2021/12/20 05:50:55;;;;;;;19.25;9.900002;;;;;;;1.47;99.75195;95822.85;;;;
2021/12/20 05:51:56;;;;;;;19.25;9.900002;;;;;;;1.47;99.75195;95822.85;;;;
2021/12/20 05:52:56;;;;;;;19.25;9.900002;;;;;;;1.47;99.75195;95822.85;;;;
2021/12/20 05:53:57;;;;;;;19.25;9.900002;;;;;;;1.47;99.75195;95822.85;;;;
2021/12/20 05:54:57;;;;;;;19.25;9.900002;;;;;;;1.47;99.75195;95822.85;;;;
2021/12/20 05:55:58;;;;;;;21.4;10.45;;;;;;;1.42;99.95898;95819.75;;;;
2021/12/20 05:56:58;;;;;;;21.4;10.45;;;;;;;1.42;99.95898;95819.75;;;;
2021/12/20 05:57:59;;;;;;;21.4;10.45;;;;;;;1.42;99.95898;95819.75;;;;
2021/12/20 05:58:59;;;;;;;21.4;10.45;;;;;;;1.42;99.95898;95819.75;;;;